createdAt,value
2023-04-14T00:00:18.926Z,10.81
2023-04-14T00:03:07.871Z,10.79
2023-04-14T00:05:37.271Z,10.77
2023-04-14T00:08:05.969Z,10.77
2023-04-14T00:10:35.064Z,10.80
2023-04-14T00:13:03.438Z,10.75
2023-04-14T00:15:36.424Z,10.74
2023-04-14T00:18:05.431Z,10.72
2023-04-14T00:20:34.041Z,10.68
2023-04-14T00:23:02.411Z,10.68
2023-04-14T00:25:31.317Z,10.70
2023-04-14T00:27:59.849Z,10.72
2023-04-14T00:30:31.714Z,10.72
2023-04-14T00:33:01.839Z,10.63
2023-04-14T00:35:32.564Z,10.63
2023-04-14T00:38:04.830Z,10.63
2023-04-14T00:40:33.410Z,10.63
2023-04-14T00:43:02.400Z,10.62
2023-04-14T00:45:31.187Z,10.62
2023-04-14T00:47:59.927Z,10.60
2023-04-14T00:50:28.422Z,10.58
2023-04-14T00:52:57.689Z,10.58
2023-04-14T00:55:26.072Z,10.55
2023-04-14T00:57:55.021Z,10.55
2023-04-14T01:00:23.409Z,10.48
2023-04-14T01:02:52.908Z,10.46
2023-04-14T01:05:22.443Z,10.48
2023-04-14T01:07:51.397Z,10.43
2023-04-14T01:10:19.772Z,10.39
2023-04-14T01:12:56.381Z,10.34
2023-04-14T01:15:39.225Z,10.36
2023-04-14T01:18:19.922Z,10.36
2023-04-14T01:20:53.176Z,10.33
2023-04-14T01:23:29.286Z,10.24
2023-04-14T01:26:17.342Z,10.23
2023-04-14T01:28:56.003Z,10.23
2023-04-14T01:31:32.870Z,10.24
2023-04-14T01:34:14.083Z,10.25
2023-04-14T01:37:02.723Z,10.23
2023-04-14T01:39:35.394Z,10.23
2023-04-14T01:42:06.802Z,10.24
2023-04-14T01:44:37.696Z,10.26
2023-04-14T01:47:08.684Z,10.31
2023-04-14T01:49:39.750Z,10.35
2023-04-14T01:52:10.103Z,10.35
2023-04-14T01:54:39.854Z,10.39
2023-04-14T01:57:11.478Z,10.37
2023-04-14T01:59:41.726Z,10.35
2023-04-14T02:02:12.149Z,10.31
2023-04-14T02:04:40.705Z,10.31
2023-04-14T02:07:10.953Z,10.32
2023-04-14T02:09:39.696Z,10.31
2023-04-14T02:12:09.004Z,10.30
2023-04-14T02:14:37.385Z,10.32
2023-04-14T02:17:06.070Z,10.34
2023-04-14T02:19:34.667Z,10.32
2023-04-14T02:22:03.634Z,10.33
2023-04-14T02:24:32.418Z,10.33
2023-04-14T02:27:11.439Z,10.36
2023-04-14T02:29:42.204Z,10.37
2023-04-14T02:32:14.908Z,10.38
2023-04-14T02:35:05.158Z,10.38
2023-04-14T02:37:37.264Z,10.39
2023-04-14T02:40:13.106Z,10.38
2023-04-14T02:42:45.167Z,10.37
2023-04-14T02:45:15.341Z,10.36
2023-04-14T02:47:46.379Z,10.36
2023-04-14T02:50:15.791Z,10.37
2023-04-14T02:52:51.575Z,10.36
2023-04-14T02:55:22.679Z,10.35
2023-04-14T02:57:54.235Z,10.35
2023-04-14T03:00:22.688Z,10.28
2023-04-14T03:02:53.849Z,10.26
2023-04-14T03:05:22.373Z,10.27
2023-04-14T03:07:56.104Z,10.24
2023-04-14T03:10:24.430Z,10.28
2023-04-14T03:12:53.710Z,10.29
2023-04-14T03:15:23.012Z,10.31
2023-04-14T03:17:54.306Z,10.33
2023-04-14T03:20:23.761Z,10.32
2023-04-14T03:23:05.579Z,10.34
2023-04-14T03:25:42.114Z,10.34
2023-04-14T03:28:19.617Z,10.36
2023-04-14T03:30:51.585Z,10.39
2023-04-14T03:33:24.245Z,10.39
2023-04-14T03:35:53.590Z,10.41
2023-04-14T03:38:23.863Z,10.41
2023-04-14T03:40:53.370Z,10.40
2023-04-14T03:43:23.915Z,10.40
2023-04-14T03:45:59.034Z,10.35
2023-04-14T03:48:30.378Z,10.35
2023-04-14T03:51:00.138Z,10.37
2023-04-14T03:53:28.663Z,10.33
2023-04-14T03:55:57.151Z,10.31
2023-04-14T03:58:29.007Z,10.33
2023-04-14T04:00:58.263Z,10.33
2023-04-14T04:03:28.709Z,10.30
2023-04-14T04:05:57.519Z,10.33
2023-04-14T04:08:26.102Z,10.33
2023-04-14T04:10:54.785Z,10.35
2023-04-14T04:13:23.998Z,10.33
2023-04-14T04:15:55.778Z,10.37
2023-04-14T04:18:24.530Z,10.39
2023-04-14T04:20:52.904Z,10.40
2023-04-14T04:23:25.748Z,10.39
2023-04-14T04:25:55.256Z,10.34
2023-04-14T04:28:46.510Z,10.33
2023-04-14T04:31:16.670Z,10.29
2023-04-14T04:33:46.791Z,10.32
2023-04-14T04:36:18.431Z,10.32
2023-04-14T04:38:46.794Z,10.36
2023-04-14T04:41:29.087Z,10.33
2023-04-14T04:43:59.476Z,10.28
2023-04-14T04:46:45.082Z,10.29
2023-04-14T04:49:13.355Z,10.28
2023-04-14T04:51:43.885Z,10.30
2023-04-14T04:54:12.669Z,10.30
2023-04-14T04:56:48.159Z,10.30
2023-04-14T04:59:23.044Z,10.31
2023-04-14T05:01:51.348Z,10.30
2023-04-14T05:04:19.685Z,10.32
2023-04-14T05:06:48.189Z,10.33
2023-04-14T05:09:20.570Z,10.35
2023-04-14T05:11:48.842Z,10.38
2023-04-14T05:14:17.131Z,10.35
2023-04-14T05:16:45.681Z,10.40
2023-04-14T05:19:23.587Z,10.44
2023-04-14T05:21:52.345Z,10.46
2023-04-14T05:24:21.500Z,10.43
2023-04-14T05:27:09.340Z,10.45
2023-04-14T05:29:39.731Z,10.48
2023-04-14T05:32:08.358Z,10.45
2023-04-14T05:34:36.964Z,10.47
2023-04-14T05:37:05.586Z,10.47
2023-04-14T05:39:34.550Z,10.43
2023-04-14T05:42:03.383Z,10.42
2023-04-14T05:44:31.807Z,10.40
2023-04-14T05:47:00.045Z,10.39
2023-04-14T05:49:29.407Z,10.40
2023-04-14T05:51:57.851Z,10.40
2023-04-14T05:54:26.978Z,10.43
2023-04-14T05:56:56.582Z,10.45
2023-04-14T05:59:24.962Z,10.44
2023-04-14T06:01:53.909Z,10.46
2023-04-14T06:04:23.740Z,10.51
2023-04-14T06:06:52.617Z,10.49
2023-04-14T06:09:22.900Z,10.49
2023-04-14T06:12:08.904Z,10.52
2023-04-14T06:14:37.857Z,10.53
2023-04-14T06:17:09.927Z,10.54
2023-04-14T06:19:38.330Z,10.58
2023-04-14T06:22:08.656Z,10.62
2023-04-14T06:24:37.101Z,10.62
2023-04-14T06:27:05.450Z,10.64
2023-04-14T06:29:34.752Z,10.63
2023-04-14T06:32:03.068Z,10.63
2023-04-14T06:34:32.890Z,10.61
2023-04-14T06:37:01.840Z,10.58
2023-04-14T06:39:30.599Z,10.54
2023-04-14T06:42:03.171Z,10.49
2023-04-14T06:44:34.841Z,10.48
2023-04-14T06:47:04.069Z,10.44
2023-04-14T06:49:33.776Z,10.42
2023-04-14T06:52:05.130Z,10.41
2023-04-14T06:54:35.389Z,10.38
2023-04-14T06:57:03.697Z,10.30
2023-04-14T06:59:33.373Z,10.27
2023-04-14T07:02:01.799Z,10.25
2023-04-14T07:04:30.274Z,10.24
2023-04-14T07:07:00.978Z,10.30
2023-04-14T07:09:29.885Z,10.29
2023-04-14T07:11:58.265Z,10.31
2023-04-14T07:14:26.696Z,10.36
2023-04-14T07:16:58.202Z,10.36
2023-04-14T07:19:27.706Z,10.34
2023-04-14T07:21:56.393Z,10.34
2023-04-14T07:24:25.586Z,10.30
2023-04-14T07:26:54.598Z,10.30
2023-04-14T07:29:23.158Z,10.32
2023-04-14T07:31:52.842Z,10.36
2023-04-14T07:34:21.304Z,10.38
2023-04-14T07:36:49.931Z,10.37
2023-04-14T07:39:22.887Z,10.37
2023-04-14T07:41:51.498Z,10.33
2023-04-14T07:44:20.090Z,10.29
2023-04-14T07:46:48.599Z,10.28
2023-04-14T07:49:17.249Z,10.32
2023-04-14T07:51:45.721Z,10.31
2023-04-14T07:54:14.306Z,10.38
2023-04-14T07:56:43.500Z,10.43
2023-04-14T07:59:12.450Z,10.50
2023-04-14T08:01:41.127Z,10.52
2023-04-14T08:04:09.777Z,10.54
2023-04-14T08:06:39.160Z,10.57
2023-04-14T08:09:09.077Z,10.55
2023-04-14T08:11:41.443Z,10.57
2023-04-14T08:14:10.085Z,10.58
2023-04-14T08:16:40.636Z,10.61
2023-04-14T08:19:09.432Z,10.66
2023-04-14T08:21:38.581Z,10.76
2023-04-14T08:24:07.935Z,10.84
2023-04-14T08:26:39.358Z,10.76
2023-04-14T08:29:13.036Z,10.77
2023-04-14T08:31:44.321Z,10.89
2023-04-14T08:34:13.443Z,11.04
2023-04-14T08:36:51.260Z,11.17
2023-04-14T08:39:24.002Z,11.29
2023-04-14T08:41:53.431Z,11.39
2023-04-14T08:44:21.982Z,11.46
2023-04-14T08:46:53.577Z,11.51
2023-04-14T08:49:34.519Z,11.53
2023-04-14T08:52:04.422Z,11.53
2023-04-14T08:54:34.766Z,11.53
2023-04-14T08:57:05.073Z,11.53
2023-04-14T08:59:36.215Z,11.54
2023-04-14T09:02:08.597Z,11.55
2023-04-14T09:04:37.583Z,11.57
2023-04-14T09:07:06.164Z,11.63
2023-04-14T09:09:39.823Z,11.72
2023-04-14T09:12:08.654Z,11.79
2023-04-14T09:14:38.021Z,11.94
2023-04-14T09:17:07.636Z,12.04
2023-04-14T09:19:36.855Z,12.11
2023-04-14T09:22:26.838Z,12.19
2023-04-14T09:25:46.622Z,12.24
2023-04-14T09:28:15.553Z,12.22
2023-04-14T09:30:44.030Z,12.24
2023-04-14T09:33:23.250Z,12.24
2023-04-14T09:35:52.124Z,12.20
2023-04-14T09:38:35.895Z,12.13
2023-04-14T09:41:06.332Z,12.01
2023-04-14T09:43:35.014Z,11.89
2023-04-14T09:46:10.345Z,11.77
2023-04-14T09:48:56.125Z,11.68
2023-04-14T09:51:28.546Z,11.68
2023-04-14T09:54:05.257Z,11.64
2023-04-14T09:56:35.751Z,11.61
2023-04-14T09:59:06.268Z,11.59
2023-04-14T10:01:34.999Z,11.57
2023-04-14T10:04:04.578Z,11.59
2023-04-14T10:06:34.283Z,11.65
2023-04-14T10:09:02.997Z,11.58
2023-04-14T10:11:37.525Z,11.53
2023-04-14T10:14:06.524Z,11.53
2023-04-14T10:16:35.146Z,11.61
2023-04-14T10:19:04.364Z,11.72
2023-04-14T10:21:36.924Z,11.77
2023-04-14T10:24:05.754Z,11.76
2023-04-14T10:29:34.163Z,11.77
2023-04-14T10:32:06.441Z,11.72
2023-04-14T10:34:34.765Z,11.72
2023-04-14T10:37:16.551Z,11.76
2023-04-14T10:39:45.076Z,11.76
2023-04-14T10:42:13.821Z,11.83
2023-04-14T10:44:43.254Z,11.85
2023-04-14T10:47:23.573Z,11.83
2023-04-14T10:49:52.294Z,11.81
2023-04-14T10:52:22.617Z,11.79
2023-04-14T10:55:09.584Z,11.74
2023-04-14T10:57:45.076Z,11.67
2023-04-14T11:00:32.073Z,11.70
2023-04-14T11:03:11.249Z,11.73
2023-04-14T11:05:48.260Z,11.75
2023-04-14T11:08:17.599Z,11.75
2023-04-14T11:10:51.875Z,11.73
2023-04-14T11:13:20.512Z,11.77
2023-04-14T11:16:04.154Z,11.78
2023-04-14T11:18:45.763Z,11.88
2023-04-14T11:21:16.801Z,11.99
2023-04-14T11:23:48.320Z,12.04
2023-04-14T11:26:31.825Z,12.10
2023-04-14T11:29:07.528Z,12.08
2023-04-14T11:31:37.155Z,12.15
2023-04-14T11:34:06.842Z,12.23
2023-04-14T11:36:37.467Z,12.31
2023-04-14T11:39:08.809Z,12.35
2023-04-14T11:41:38.160Z,12.29
2023-04-14T11:44:06.544Z,12.26
2023-04-14T11:46:35.077Z,12.22
2023-04-14T11:49:04.022Z,12.17
2023-04-14T11:51:33.826Z,12.18
2023-04-14T11:54:02.587Z,12.18
2023-04-14T11:56:32.022Z,12.21
2023-04-14T11:59:06.843Z,12.30
2023-04-14T12:01:35.124Z,12.36
2023-04-14T12:04:07.489Z,12.45
2023-04-14T12:06:42.530Z,12.48
2023-04-14T12:09:11.722Z,12.49
2023-04-14T12:11:40.608Z,12.51
2023-04-14T12:14:09.612Z,12.55
2023-04-14T12:16:38.533Z,12.59
2023-04-14T12:19:07.772Z,12.63
2023-04-14T12:21:36.173Z,12.60
2023-04-14T12:24:06.660Z,12.54
2023-04-14T12:26:36.582Z,12.46
2023-04-14T12:29:05.090Z,12.58
2023-04-14T12:31:33.715Z,12.63
2023-04-14T12:34:03.818Z,12.68
2023-04-14T12:36:48.881Z,12.83
2023-04-14T12:39:22.410Z,12.88
2023-04-14T12:41:51.447Z,12.88
2023-04-14T12:44:20.752Z,12.92
2023-04-14T12:46:53.881Z,13.00
2023-04-14T12:49:53.925Z,12.99
2023-04-14T12:52:39.231Z,12.95
2023-04-14T12:55:08.748Z,12.92
2023-04-14T12:57:39.664Z,12.88
2023-04-14T13:00:09.174Z,12.88
2023-04-14T13:02:47.052Z,12.77
2023-04-14T13:05:15.903Z,12.70
2023-04-14T13:07:47.006Z,12.59
2023-04-14T13:10:15.781Z,12.48
2023-04-14T13:12:44.273Z,12.28
2023-04-14T13:15:27.830Z,12.21
2023-04-14T13:18:04.414Z,12.11
2023-04-14T13:20:32.743Z,12.05
2023-04-14T13:23:02.203Z,12.03
2023-04-14T13:25:31.284Z,11.96
2023-04-14T13:27:59.595Z,11.99
2023-04-14T13:30:28.129Z,12.02
2023-04-14T13:32:58.238Z,11.98
2023-04-14T13:35:26.612Z,11.92
2023-04-14T13:37:55.973Z,11.87
2023-04-14T13:40:24.285Z,11.74
2023-04-14T13:42:55.608Z,11.66
2023-04-14T13:45:32.240Z,11.59
2023-04-14T13:48:04.387Z,11.56
2023-04-14T13:50:36.485Z,11.54
2023-04-14T13:53:05.702Z,11.54
2023-04-14T13:55:35.500Z,11.57
2023-04-14T13:58:03.821Z,11.53
2023-04-14T14:00:32.119Z,11.48
2023-04-14T14:03:20.738Z,11.47
2023-04-14T14:05:49.949Z,11.41
2023-04-14T14:08:18.285Z,11.42
2023-04-14T14:10:48.849Z,11.55
2023-04-14T14:13:18.550Z,11.57
2023-04-14T14:15:47.950Z,11.62
2023-04-14T14:18:18.173Z,11.63
2023-04-14T14:20:47.391Z,11.60
2023-04-14T14:23:16.370Z,11.56
2023-04-14T14:25:45.528Z,11.60
2023-04-14T14:28:14.958Z,11.59
2023-04-14T14:30:43.375Z,11.59
2023-04-14T14:33:13.141Z,11.62
2023-04-14T14:35:41.625Z,11.63
2023-04-14T14:38:10.713Z,11.64
2023-04-14T14:40:43.136Z,11.64
2023-04-14T14:43:11.968Z,11.60
2023-04-14T14:45:40.451Z,11.57
2023-04-14T14:48:11.922Z,11.52
2023-04-14T14:50:40.459Z,11.46
2023-04-14T14:53:08.831Z,11.45
2023-04-14T14:55:38.222Z,11.40
2023-04-14T14:58:08.558Z,11.38
2023-04-14T15:00:38.884Z,11.35
2023-04-14T15:03:10.903Z,11.30
2023-04-14T15:05:40.250Z,11.28
2023-04-14T15:08:09.854Z,11.20
2023-04-14T15:10:45.102Z,11.16
2023-04-14T15:13:15.480Z,11.19
2023-04-14T15:15:44.333Z,11.21
2023-04-14T15:18:13.948Z,11.18
2023-04-14T15:20:42.646Z,11.20
2023-04-14T15:23:11.021Z,11.17
2023-04-14T15:25:40.235Z,11.16
2023-04-14T15:28:10.080Z,11.15
2023-04-14T15:30:39.258Z,11.15
2023-04-14T15:33:08.753Z,11.18
2023-04-14T15:35:42.456Z,11.14
2023-04-14T15:38:11.144Z,11.12
2023-04-14T15:40:40.236Z,11.12
2023-04-14T15:43:11.236Z,11.11
2023-04-14T15:45:40.299Z,11.14
2023-04-14T15:48:08.588Z,11.06
2023-04-14T15:50:44.822Z,11.01
2023-04-14T15:53:13.784Z,11.02
2023-04-14T15:55:42.359Z,11.09
2023-04-14T15:58:11.943Z,11.16
2023-04-14T16:00:40.885Z,11.18
2023-04-14T16:03:09.637Z,11.21
2023-04-14T16:05:41.866Z,11.18
2023-04-14T16:08:10.655Z,11.15
2023-04-14T16:10:42.891Z,11.13
2023-04-14T16:13:19.344Z,11.13
2023-04-14T16:15:48.874Z,11.12
2023-04-14T16:18:19.321Z,11.08
2023-04-14T16:20:50.311Z,11.04
2023-04-14T16:23:22.090Z,11.04
2023-04-14T16:25:50.335Z,11.10
2023-04-14T16:28:18.684Z,11.08
2023-04-14T16:30:47.918Z,11.00
2023-04-14T16:33:22.893Z,11.02
2023-04-14T16:35:52.763Z,10.95
2023-04-14T16:38:21.680Z,10.90
2023-04-14T16:40:59.110Z,10.96
2023-04-14T16:43:28.140Z,10.98
2023-04-14T16:46:08.050Z,10.97
2023-04-14T16:48:37.294Z,10.91
2023-04-14T16:51:10.168Z,10.98
2023-04-14T16:53:40.188Z,10.97
2023-04-14T16:56:08.952Z,10.99
2023-04-14T16:58:45.415Z,10.92
2023-04-14T17:01:13.832Z,10.86
2023-04-14T17:03:43.006Z,10.86
2023-04-14T17:06:11.831Z,10.91
2023-04-14T17:08:45.663Z,10.82
2023-04-14T17:11:15.270Z,10.84
2023-04-14T17:13:44.159Z,10.79
2023-04-14T17:16:18.803Z,10.75
2023-04-14T17:18:48.475Z,10.70
2023-04-14T17:21:18.609Z,10.68
2023-04-14T17:23:55.582Z,10.63
2023-04-14T17:26:24.885Z,10.59
2023-04-14T17:28:53.365Z,10.56
2023-04-14T17:31:24.967Z,10.58
2023-04-14T17:33:54.217Z,10.55
2023-04-14T17:36:22.797Z,10.60
2023-04-14T17:38:51.073Z,10.60
2023-04-14T17:41:20.926Z,10.66
2023-04-14T17:43:52.335Z,10.67
2023-04-14T17:46:23.627Z,10.63
2023-04-14T17:48:52.454Z,10.58
2023-04-14T17:51:21.052Z,10.55
2023-04-14T17:53:51.795Z,10.51
2023-04-14T17:56:20.986Z,10.52
2023-04-14T17:58:52.127Z,10.46
2023-04-14T18:01:22.255Z,10.43
2023-04-14T18:03:53.028Z,10.44
2023-04-14T18:06:21.512Z,10.45
2023-04-14T18:08:51.789Z,10.41
2023-04-14T18:11:21.690Z,10.40
2023-04-14T18:13:50.884Z,10.37
2023-04-14T18:16:20.176Z,10.41
2023-04-14T18:18:59.109Z,10.45
2023-04-14T18:21:30.165Z,10.47
2023-04-14T18:26:36.738Z,10.47
2023-04-14T18:29:05.413Z,10.48
2023-04-14T18:31:33.683Z,10.48
2023-04-14T18:34:19.612Z,10.47
2023-04-14T18:36:49.309Z,10.48
2023-04-14T18:39:18.995Z,10.45
2023-04-14T18:41:48.290Z,10.47
2023-04-14T18:44:17.448Z,10.47
2023-04-14T18:46:46.040Z,10.46
2023-04-14T18:49:14.592Z,10.43
2023-04-14T18:51:43.439Z,10.42
2023-04-14T18:54:13.367Z,10.44
2023-04-14T18:56:42.095Z,10.46
2023-04-14T18:59:11.398Z,10.49
2023-04-14T19:01:42.949Z,10.44
2023-04-14T19:04:11.574Z,10.46
2023-04-14T19:06:40.663Z,10.43
2023-04-14T19:09:09.115Z,10.46
2023-04-14T19:11:42.643Z,10.46
2023-04-14T19:14:12.700Z,10.43
2023-04-14T19:16:41.241Z,10.46
2023-04-14T19:19:09.891Z,10.41
2023-04-14T19:21:39.560Z,10.41
2023-04-14T19:24:08.451Z,10.40
2023-04-14T19:26:40.639Z,10.41
2023-04-14T19:29:10.523Z,10.43
2023-04-14T19:31:39.557Z,10.43
2023-04-14T19:34:07.802Z,10.43
2023-04-14T19:36:36.247Z,10.40
2023-04-14T19:39:05.452Z,10.35
2023-04-14T19:41:34.028Z,10.30
2023-04-14T19:44:04.860Z,10.31
2023-04-14T19:46:35.785Z,10.29
2023-04-14T19:49:04.501Z,10.30
2023-04-14T19:51:33.983Z,10.35
2023-04-14T19:54:05.672Z,10.38
2023-04-14T19:56:35.449Z,10.39
2023-04-14T19:59:04.236Z,10.42
2023-04-14T20:01:33.233Z,10.44
2023-04-14T20:04:08.385Z,10.47
2023-04-14T20:06:43.041Z,10.46
2023-04-14T20:09:12.078Z,10.50
2023-04-14T20:11:40.680Z,10.51
2023-04-14T20:14:09.388Z,10.52
2023-04-14T20:16:40.732Z,10.54
2023-04-14T20:19:09.355Z,10.56
2023-04-14T20:21:37.625Z,10.46
2023-04-14T20:24:06.148Z,10.43
2023-04-14T20:26:35.352Z,10.41
2023-04-14T20:29:05.566Z,10.42
2023-04-14T20:31:34.443Z,10.42
2023-04-14T20:34:04.303Z,10.37
2023-04-14T20:36:36.061Z,10.32
2023-04-14T20:39:06.140Z,10.30
2023-04-14T20:41:37.780Z,10.28
2023-04-14T20:44:06.490Z,10.25
2023-04-14T20:46:35.097Z,10.27
2023-04-14T20:49:04.605Z,10.28
2023-04-14T20:51:33.989Z,10.30
2023-04-14T20:54:02.845Z,10.30
2023-04-14T20:56:35.120Z,10.31
2023-04-14T20:59:03.801Z,10.30
2023-04-14T21:01:32.748Z,10.35
2023-04-14T21:04:01.227Z,10.38
2023-04-14T21:06:32.417Z,10.38
2023-04-14T21:09:01.892Z,10.40
2023-04-14T21:11:30.682Z,10.39
2023-04-14T21:15:27.107Z,10.41
2023-04-14T21:16:47.666Z,10.42
2023-04-14T21:19:16.517Z,10.41
2023-04-14T21:21:49.909Z,10.41
2023-04-14T21:24:18.868Z,10.41
2023-04-14T21:26:47.185Z,10.43
2023-04-14T21:29:15.438Z,10.45
2023-04-14T21:31:45.575Z,10.44
2023-04-14T21:34:14.538Z,10.38
2023-04-14T21:36:44.381Z,10.30
2023-04-14T21:39:13.669Z,10.31
2023-04-14T21:41:42.147Z,10.32
2023-04-14T21:44:10.730Z,10.28
2023-04-14T21:46:39.026Z,10.26
2023-04-14T21:49:08.312Z,10.35
2023-04-14T21:51:36.735Z,10.31
2023-04-14T21:54:05.160Z,10.27
2023-04-14T21:56:33.646Z,10.17
2023-04-14T21:59:02.341Z,10.13
2023-04-14T22:01:34.287Z,10.14
2023-04-14T22:04:03.791Z,10.16
2023-04-14T22:06:33.811Z,10.17
2023-04-14T22:09:10.213Z,10.17
2023-04-14T22:11:39.075Z,10.15
2023-04-14T22:14:07.538Z,10.14
2023-04-14T22:16:37.925Z,10.11
2023-04-14T22:19:09.254Z,10.09
2023-04-14T22:21:37.997Z,10.09
2023-04-14T22:24:07.347Z,10.11
2023-04-14T22:26:36.519Z,10.09
2023-04-14T22:29:05.201Z,10.06
2023-04-14T22:31:33.654Z,10.04
2023-04-14T22:34:02.854Z,10.03
2023-04-14T22:36:31.773Z,10.05
2023-04-14T22:39:00.315Z,10.06
2023-04-14T22:41:29.934Z,10.09
2023-04-14T22:43:58.508Z,10.09
2023-04-14T22:46:31.134Z,10.05
2023-04-14T22:48:59.627Z,10.01
2023-04-14T22:51:28.862Z,9.99
2023-04-14T22:53:59.696Z,9.99
2023-04-14T22:56:28.439Z,9.98
2023-04-14T22:58:57.864Z,9.99
2023-04-14T23:01:29.378Z,9.97
2023-04-14T23:03:57.779Z,9.97
2023-04-14T23:06:26.418Z,10.01
2023-04-14T23:08:59.931Z,9.96
2023-04-14T23:11:30.521Z,9.94
2023-04-14T23:13:58.896Z,9.93
2023-04-14T23:16:27.806Z,9.93
2023-04-14T23:19:07.224Z,9.94
2023-04-14T23:21:35.916Z,9.86
2023-04-14T23:24:05.167Z,9.83
2023-04-14T23:26:38.540Z,9.84
2023-04-14T23:29:09.336Z,9.83
2023-04-14T23:31:37.754Z,9.82
2023-04-14T23:34:09.362Z,9.79
2023-04-14T23:36:39.158Z,9.79
2023-04-14T23:39:07.442Z,9.78
2023-04-14T23:41:36.857Z,9.76
2023-04-14T23:44:06.480Z,9.64
2023-04-14T23:46:35.006Z,9.65
2023-04-14T23:49:23.405Z,9.67
2023-04-14T23:51:53.177Z,9.72
2023-04-14T23:54:21.574Z,9.70
2023-04-14T23:56:49.972Z,9.71
2023-04-14T23:59:19.141Z,9.72
